createdAt,value
2022-12-04T00:01:25.736Z,-0.40
2022-12-04T00:03:54.556Z,-0.40
2022-12-04T00:06:25.168Z,-0.40
2022-12-04T00:08:53.913Z,-0.40
2022-12-04T00:11:24.039Z,-0.40
2022-12-04T00:13:52.505Z,-0.40
2022-12-04T00:16:23.909Z,-0.40
2022-12-04T00:18:52.150Z,-0.40
2022-12-04T00:21:21.628Z,-0.40
2022-12-04T00:23:51.548Z,-0.40
2022-12-04T00:26:22.609Z,-0.40
2022-12-04T00:28:53.202Z,-0.40
2022-12-04T00:31:24.941Z,-0.40
2022-12-04T00:33:53.520Z,-0.40
2022-12-04T00:36:23.947Z,-0.40
2022-12-04T00:38:53.556Z,-0.40
2022-12-04T00:41:26.776Z,-0.40
2022-12-04T00:43:55.240Z,-0.40
2022-12-04T00:46:23.952Z,-0.30
2022-12-04T00:48:53.266Z,-0.30
2022-12-04T00:51:23.352Z,-0.30
2022-12-04T00:53:53.525Z,-0.30
2022-12-04T00:56:24.131Z,-0.30
2022-12-04T00:58:54.743Z,-0.30
2022-12-04T01:01:24.506Z,-0.30
2022-12-04T01:03:52.973Z,-0.30
2022-12-04T01:06:23.294Z,-0.30
2022-12-04T01:08:53.905Z,-0.30
2022-12-04T01:11:23.103Z,-0.30
2022-12-04T01:13:51.827Z,-0.30
2022-12-04T01:16:22.752Z,-0.30
2022-12-04T01:18:51.347Z,-0.30
2022-12-04T01:21:20.233Z,-0.30
2022-12-04T01:23:48.477Z,-0.30
2022-12-04T01:26:18.252Z,-0.30
2022-12-04T01:28:46.436Z,-0.30
2022-12-04T01:31:16.913Z,-0.30
2022-12-04T01:33:45.575Z,-0.30
2022-12-04T01:36:15.838Z,-0.30
2022-12-04T01:38:44.367Z,-0.30
2022-12-04T01:41:14.523Z,-0.30
2022-12-04T01:43:44.141Z,-0.30
2022-12-04T01:46:12.907Z,-0.30
2022-12-04T01:48:44.932Z,-0.30
2022-12-04T01:51:18.756Z,-0.30
2022-12-04T01:53:50.865Z,-0.30
2022-12-04T01:56:20.669Z,-0.30
2022-12-04T01:58:55.201Z,-0.30
2022-12-04T02:01:23.787Z,-0.30
2022-12-04T02:03:51.957Z,-0.30
2022-12-04T02:06:20.131Z,-0.30
2022-12-04T02:08:48.440Z,-0.30
2022-12-04T02:11:28.344Z,-0.30
2022-12-04T02:14:04.336Z,-0.30
2022-12-04T02:16:38.904Z,-0.30
2022-12-04T02:19:22.952Z,-0.30
2022-12-04T02:21:53.609Z,-0.30
2022-12-04T02:24:46.795Z,-0.30
2022-12-04T02:27:32.027Z,-0.30
2022-12-04T02:30:05.600Z,-0.30
2022-12-04T02:32:40.927Z,-0.30
2022-12-04T02:35:15.100Z,-0.30
2022-12-04T02:37:47.085Z,-0.30
2022-12-04T02:40:22.002Z,-0.30
2022-12-04T02:42:59.185Z,-0.30
2022-12-04T02:45:32.699Z,-0.30
2022-12-04T02:48:05.565Z,-0.30
2022-12-04T02:50:38.659Z,-0.30
2022-12-04T02:53:11.576Z,-0.20
2022-12-04T02:55:43.925Z,-0.20
2022-12-04T02:58:17.511Z,-0.20
2022-12-04T03:00:49.784Z,-0.20
2022-12-04T03:03:22.700Z,-0.20
2022-12-04T03:05:57.165Z,-0.20
2022-12-04T03:08:30.841Z,-0.20
2022-12-04T03:11:01.507Z,-0.20
2022-12-04T03:13:34.525Z,-0.20
2022-12-04T03:16:08.533Z,-0.20
2022-12-04T03:18:41.137Z,-0.20
2022-12-04T03:21:12.207Z,-0.20
2022-12-04T03:23:45.385Z,-0.20
2022-12-04T03:26:20.268Z,-0.20
2022-12-04T03:28:52.825Z,-0.20
2022-12-04T03:31:30.612Z,-0.20
2022-12-04T03:34:02.369Z,-0.20
2022-12-04T03:36:34.697Z,-0.20
2022-12-04T03:39:09.620Z,-0.20
2022-12-04T03:41:50.101Z,-0.10
2022-12-04T03:44:24.450Z,-0.10
2022-12-04T03:47:00.206Z,-0.10
2022-12-04T03:49:34.581Z,-0.10
2022-12-04T03:52:08.431Z,-0.10
2022-12-04T03:54:42.083Z,-0.10
2022-12-04T03:57:15.332Z,-0.10
2022-12-04T03:59:51.130Z,-0.10
2022-12-04T04:02:29.142Z,-0.10
2022-12-04T04:04:59.971Z,-0.10
2022-12-04T04:07:35.818Z,-0.10
2022-12-04T04:10:08.930Z,-0.10
2022-12-04T04:12:42.588Z,-0.10
2022-12-04T04:15:32.385Z,-0.10
2022-12-04T04:18:20.716Z,-0.10
2022-12-04T04:21:11.441Z,-0.10
2022-12-04T04:24:01.479Z,-0.10
2022-12-04T04:26:34.458Z,-0.10
2022-12-04T04:29:02.943Z,-0.10
2022-12-04T04:31:39.293Z,-0.10
2022-12-04T04:34:15.818Z,-0.10
2022-12-04T04:36:55.222Z,-0.10
2022-12-04T04:39:31.628Z,-0.10
2022-12-04T04:42:05.865Z,-0.10
2022-12-04T04:44:42.227Z,-0.10
2022-12-04T04:47:17.732Z,-0.10
2022-12-04T04:49:51.056Z,-0.10
2022-12-04T04:52:21.350Z,-0.10
2022-12-04T04:54:49.502Z,-0.10
2022-12-04T04:57:27.767Z,-0.10
2022-12-04T04:59:56.005Z,-0.10
2022-12-04T05:02:26.921Z,-0.10
2022-12-04T05:04:56.924Z,-0.10
2022-12-04T05:07:25.073Z,-0.10
2022-12-04T05:09:53.283Z,-0.10
2022-12-04T05:12:21.598Z,-0.10
2022-12-04T05:14:49.848Z,-0.10
2022-12-04T05:17:18.321Z,-0.10
2022-12-04T05:19:56.669Z,-0.10
2022-12-04T05:22:29.092Z,-0.10
2022-12-04T05:24:57.638Z,-0.10
2022-12-04T05:27:27.021Z,-0.10
2022-12-04T05:29:56.265Z,-0.10
2022-12-04T05:32:26.077Z,-0.10
2022-12-04T05:34:56.048Z,-0.10
2022-12-04T05:37:25.099Z,-0.10
2022-12-04T05:39:55.045Z,-0.10
2022-12-04T05:42:23.545Z,-0.10
2022-12-04T05:44:51.676Z,-0.10
2022-12-04T05:47:19.841Z,-0.10
2022-12-04T05:49:48.005Z,-0.10
2022-12-04T05:52:16.310Z,-0.10
2022-12-04T05:54:44.433Z,-0.10
2022-12-04T05:57:13.989Z,0.00
2022-12-04T05:59:42.170Z,0.00
2022-12-04T06:02:10.363Z,0.00
2022-12-04T06:04:38.907Z,0.00
2022-12-04T06:07:07.082Z,0.00
2022-12-04T06:09:35.245Z,0.00
2022-12-04T06:12:03.527Z,0.00
2022-12-04T06:14:39.131Z,0.00
2022-12-04T06:17:08.030Z,0.00
2022-12-04T06:19:36.228Z,0.00
2022-12-04T06:22:04.437Z,0.00
2022-12-04T06:24:32.616Z,0.00
2022-12-04T06:29:50.852Z,0.00
2022-12-04T06:32:21.872Z,0.00
2022-12-04T06:34:53.146Z,0.00
2022-12-04T06:37:22.262Z,0.00
2022-12-04T06:39:50.543Z,0.00
2022-12-04T06:42:18.907Z,0.00
2022-12-04T06:44:47.073Z,0.00
2022-12-04T06:47:16.573Z,0.00
2022-12-04T06:49:46.061Z,0.00
2022-12-04T06:52:14.238Z,0.00
2022-12-04T06:54:42.524Z,0.00
2022-12-04T06:57:10.736Z,0.00
2022-12-04T06:59:39.221Z,0.00
2022-12-04T07:02:07.546Z,0.00
2022-12-04T07:04:37.113Z,0.10
2022-12-04T07:07:05.243Z,0.10
2022-12-04T07:09:33.377Z,0.10
2022-12-04T07:12:01.556Z,0.10
2022-12-04T07:14:29.749Z,0.10
2022-12-04T07:16:58.528Z,0.10
2022-12-04T07:19:26.751Z,0.20
2022-12-04T07:21:56.293Z,0.20
2022-12-04T07:24:24.463Z,0.20
2022-12-04T07:26:52.645Z,0.20
2022-12-04T07:29:20.760Z,0.20
2022-12-04T07:31:49.076Z,0.20
2022-12-04T07:34:17.246Z,0.20
2022-12-04T07:36:45.381Z,0.20
2022-12-04T07:39:15.709Z,0.20
2022-12-04T07:41:43.820Z,0.20
2022-12-04T07:44:12.273Z,0.30
2022-12-04T07:46:40.412Z,0.30
2022-12-04T07:49:08.593Z,0.30
2022-12-04T07:51:36.728Z,0.30
2022-12-04T07:54:04.924Z,0.30
2022-12-04T07:56:34.707Z,0.30
2022-12-04T07:59:03.795Z,0.30
2022-12-04T08:01:32.519Z,0.30
2022-12-04T08:04:03.354Z,0.40
2022-12-04T08:06:34.835Z,0.40
2022-12-04T08:09:09.159Z,0.50
2022-12-04T08:11:39.847Z,0.50
2022-12-04T08:14:09.826Z,0.50
2022-12-04T08:16:38.200Z,0.50
2022-12-04T08:19:06.520Z,0.60
2022-12-04T08:21:34.953Z,0.60
2022-12-04T08:24:03.583Z,0.60
2022-12-04T08:26:33.731Z,0.60
2022-12-04T08:29:04.480Z,0.60
2022-12-04T08:31:37.264Z,0.60
2022-12-04T08:34:07.789Z,0.60
2022-12-04T08:36:36.328Z,0.70
2022-12-04T08:39:04.957Z,0.70
2022-12-04T08:41:33.795Z,0.70
2022-12-04T08:44:03.396Z,0.70
2022-12-04T08:46:31.839Z,0.70
2022-12-04T08:49:00.317Z,0.80
2022-12-04T08:51:29.969Z,0.80
2022-12-04T08:53:59.942Z,0.80
2022-12-04T08:56:30.413Z,0.80
2022-12-04T08:58:59.113Z,0.80
2022-12-04T09:01:29.965Z,0.90
2022-12-04T09:03:58.938Z,0.90
2022-12-04T09:06:27.565Z,0.90
2022-12-04T09:08:56.305Z,1.00
2022-12-04T09:11:26.899Z,1.00
2022-12-04T09:13:55.884Z,1.10
2022-12-04T09:16:26.152Z,1.10
2022-12-04T09:18:56.346Z,1.20
2022-12-04T09:21:26.093Z,1.20
2022-12-04T09:24:03.570Z,1.20
2022-12-04T09:26:33.698Z,1.30
2022-12-04T09:29:06.748Z,1.30
2022-12-04T09:31:35.757Z,1.30
2022-12-04T09:34:05.329Z,1.30
2022-12-04T09:36:33.518Z,1.40
2022-12-04T09:39:01.678Z,1.40
2022-12-04T09:42:00.856Z,1.30
2022-12-04T09:44:33.976Z,1.30
2022-12-04T09:47:04.434Z,1.30
2022-12-04T09:49:39.782Z,1.30
2022-12-04T09:52:21.735Z,1.30
2022-12-04T09:54:52.155Z,1.40
2022-12-04T09:57:29.817Z,1.40
2022-12-04T09:59:58.715Z,1.30
2022-12-04T10:02:39.260Z,1.30
2022-12-04T10:05:19.980Z,1.30
2022-12-04T10:07:57.104Z,1.30
2022-12-04T10:10:35.345Z,1.40
2022-12-04T10:13:22.562Z,1.40
2022-12-04T10:15:54.640Z,1.40
2022-12-04T10:18:41.872Z,1.40
2022-12-04T10:21:27.020Z,1.50
2022-12-04T10:24:06.610Z,1.50
2022-12-04T10:26:40.460Z,1.50
2022-12-04T10:29:15.786Z,1.60
2022-12-04T10:31:47.041Z,1.60
2022-12-04T10:34:20.102Z,1.60
2022-12-04T10:36:53.091Z,1.70
2022-12-04T10:39:25.898Z,1.70
2022-12-04T10:41:59.162Z,1.80
2022-12-04T10:44:33.668Z,1.90
2022-12-04T10:47:05.486Z,2.00
2022-12-04T10:49:36.023Z,2.10
2022-12-04T10:52:06.450Z,2.10
2022-12-04T10:54:36.625Z,2.20
2022-12-04T10:57:07.302Z,2.30
2022-12-04T10:59:36.150Z,2.40
2022-12-04T11:02:12.744Z,2.40
2022-12-04T11:04:42.747Z,2.50
2022-12-04T11:07:25.711Z,2.60
2022-12-04T11:09:59.822Z,2.70
2022-12-04T11:12:28.810Z,2.70
2022-12-04T11:20:47.974Z,2.60
2022-12-04T11:23:19.035Z,2.60
2022-12-04T11:28:55.555Z,2.60
2022-12-04T11:31:38.159Z,2.70
2022-12-04T11:34:11.581Z,2.70
2022-12-04T11:36:42.408Z,2.70
2022-12-04T11:39:25.454Z,2.80
2022-12-04T11:42:05.131Z,2.80
2022-12-04T11:44:35.179Z,2.80
2022-12-04T11:47:05.318Z,2.80
2022-12-04T11:49:33.942Z,2.80
2022-12-04T11:52:15.507Z,2.80
2022-12-04T11:57:31.222Z,2.80
2022-12-04T12:00:10.831Z,2.80
2022-12-04T12:03:10.788Z,2.80
2022-12-04T12:06:14.945Z,2.90
2022-12-04T12:09:25.040Z,2.80
2022-12-04T12:11:58.965Z,2.80
2022-12-04T12:14:34.330Z,2.80
2022-12-04T12:17:12.775Z,2.80
2022-12-04T12:20:12.190Z,2.80
2022-12-04T12:23:12.442Z,2.80
2022-12-04T12:25:52.077Z,2.70
2022-12-04T12:29:12.864Z,2.70
2022-12-04T12:32:25.952Z,2.60
2022-12-04T12:35:10.614Z,2.60
2022-12-04T12:37:58.179Z,2.60
2022-12-04T12:40:46.851Z,2.60
2022-12-04T12:43:43.961Z,2.60
2022-12-04T12:46:48.104Z,2.60
2022-12-04T12:50:00.228Z,2.60
2022-12-04T12:52:55.587Z,2.60
2022-12-04T12:55:58.168Z,2.60
2022-12-04T12:58:48.395Z,2.60
2022-12-04T13:01:41.759Z,2.60
2022-12-04T13:04:26.028Z,2.60
2022-12-04T13:07:59.348Z,2.60
2022-12-04T13:10:48.299Z,2.60
2022-12-04T13:13:41.584Z,2.60
2022-12-04T13:16:57.775Z,2.60
2022-12-04T13:19:34.741Z,2.60
2022-12-04T13:22:29.761Z,2.60
2022-12-04T13:25:53.167Z,2.70
2022-12-04T13:29:16.222Z,2.70
2022-12-04T13:32:13.948Z,2.70
2022-12-04T13:35:19.624Z,2.60
2022-12-04T13:38:44.205Z,2.70
2022-12-04T13:41:46.887Z,2.70
2022-12-04T13:55:00.863Z,2.60
2022-12-04T13:57:29.293Z,2.60
2022-12-04T14:00:05.878Z,2.60
2022-12-04T14:02:38.328Z,2.60
2022-12-04T14:05:09.033Z,2.60
2022-12-04T14:07:39.826Z,2.50
2022-12-04T14:10:27.922Z,2.50
2022-12-04T14:13:01.817Z,2.40
2022-12-04T14:15:32.243Z,2.40
2022-12-04T14:18:03.957Z,2.40
2022-12-04T14:20:33.781Z,2.40
2022-12-04T14:23:26.610Z,2.40
2022-12-04T14:26:00.680Z,2.40
2022-12-04T14:28:42.404Z,2.30
2022-12-04T14:31:31.629Z,2.30
2022-12-04T14:34:02.696Z,2.30
2022-12-04T14:36:34.949Z,2.30
2022-12-04T14:39:10.130Z,2.20
2022-12-04T14:41:40.570Z,2.20
2022-12-04T14:44:15.970Z,2.20
2022-12-04T14:46:48.691Z,2.20
2022-12-04T14:49:30.136Z,2.20
2022-12-04T14:52:07.311Z,2.10
2022-12-04T14:54:41.968Z,2.10
2022-12-04T14:57:25.549Z,2.10
2022-12-04T14:59:55.664Z,2.10
2022-12-04T15:02:29.709Z,2.10
2022-12-04T15:04:58.374Z,2.10
2022-12-04T15:07:30.480Z,2.10
2022-12-04T15:10:18.192Z,2.10
2022-12-04T15:12:49.981Z,2.00
2022-12-04T15:15:25.355Z,2.10
2022-12-04T15:18:02.345Z,2.00
2022-12-04T15:20:38.678Z,2.00
2022-12-04T15:23:07.415Z,2.00
2022-12-04T15:25:41.921Z,2.00
2022-12-04T15:28:17.893Z,2.00
2022-12-04T15:30:50.815Z,2.00
2022-12-04T15:33:23.246Z,2.00
2022-12-04T15:35:56.272Z,2.00
2022-12-04T15:38:24.776Z,1.90
2022-12-04T15:40:55.611Z,1.90
2022-12-04T15:43:41.983Z,1.90
2022-12-04T15:46:14.328Z,1.90
2022-12-04T15:48:47.603Z,1.80
2022-12-04T15:51:17.900Z,1.80
2022-12-04T15:53:47.851Z,1.80
2022-12-04T15:56:19.561Z,1.80
2022-12-04T15:59:00.064Z,1.70
2022-12-04T16:01:28.631Z,1.70
2022-12-04T16:03:57.520Z,1.70
2022-12-04T16:06:28.402Z,1.60
2022-12-04T16:09:03.613Z,1.70
2022-12-04T16:11:34.625Z,1.60
2022-12-04T16:14:20.295Z,1.60
2022-12-04T16:16:50.476Z,1.50
2022-12-04T16:19:30.565Z,1.50
2022-12-04T16:21:58.764Z,1.50
2022-12-04T16:24:29.791Z,1.50
2022-12-04T16:27:00.068Z,1.50
2022-12-04T16:29:30.536Z,1.50
2022-12-04T16:32:03.261Z,1.50
2022-12-04T16:34:31.877Z,1.50
2022-12-04T16:37:00.736Z,1.40
2022-12-04T16:39:28.864Z,1.40
2022-12-04T16:41:56.980Z,1.30
2022-12-04T16:44:27.792Z,1.30
2022-12-04T16:46:57.327Z,1.30
2022-12-04T16:49:31.522Z,1.20
2022-12-04T16:52:05.317Z,1.20
2022-12-04T16:54:33.640Z,1.20
2022-12-04T16:57:01.941Z,1.20
2022-12-04T16:59:30.100Z,1.20
2022-12-04T17:02:01.371Z,1.20
2022-12-04T17:04:29.720Z,1.20
2022-12-04T17:06:57.924Z,1.10
2022-12-04T17:09:28.901Z,1.10
2022-12-04T17:11:57.073Z,1.10
2022-12-04T17:14:25.196Z,1.00
2022-12-04T17:16:55.027Z,1.00
2022-12-04T17:19:24.595Z,1.00
2022-12-04T17:21:52.712Z,1.00
2022-12-04T17:24:20.862Z,1.00
2022-12-04T17:26:49.022Z,0.90
2022-12-04T17:29:20.257Z,0.90
2022-12-04T17:31:48.411Z,0.80
2022-12-04T17:34:17.564Z,0.80
2022-12-04T17:36:47.061Z,0.80
2022-12-04T17:39:15.169Z,0.80
2022-12-04T17:41:43.280Z,0.80
2022-12-04T17:44:11.414Z,0.70
2022-12-04T17:46:39.610Z,0.60
2022-12-04T17:49:07.776Z,0.60
2022-12-04T17:51:36.184Z,0.50
2022-12-04T17:54:06.485Z,0.40
2022-12-04T17:56:37.796Z,0.40
2022-12-04T17:59:06.822Z,0.30
2022-12-04T18:01:43.940Z,0.30
2022-12-04T18:04:20.704Z,0.40
2022-12-04T18:06:49.257Z,0.40
2022-12-04T18:09:18.896Z,0.50
2022-12-04T18:11:48.536Z,0.50
2022-12-04T18:14:19.344Z,0.50
2022-12-04T18:16:52.021Z,0.40
2022-12-04T18:19:21.360Z,0.40
2022-12-04T18:21:49.764Z,0.40
2022-12-04T18:24:19.804Z,0.40
2022-12-04T18:26:51.438Z,0.50
2022-12-04T18:29:21.765Z,0.50
2022-12-04T18:31:53.466Z,0.50
2022-12-04T18:34:22.823Z,0.50
2022-12-04T18:36:51.357Z,0.50
2022-12-04T18:39:23.168Z,0.50
2022-12-04T18:41:51.806Z,0.40
2022-12-04T18:44:19.992Z,0.40
2022-12-04T18:46:51.090Z,0.40
2022-12-04T18:49:19.234Z,0.30
2022-12-04T18:51:49.968Z,0.30
2022-12-04T18:54:27.381Z,0.30
2022-12-04T18:56:55.600Z,0.30
2022-12-04T18:59:28.988Z,0.30
2022-12-04T19:02:00.291Z,0.30
2022-12-04T19:04:31.488Z,0.30
2022-12-04T19:06:59.912Z,0.30
2022-12-04T19:12:18.496Z,0.20
2022-12-04T19:14:49.198Z,0.20
2022-12-04T19:17:20.619Z,0.10
2022-12-04T19:19:51.529Z,0.00
2022-12-04T19:22:19.783Z,0.00
2022-12-04T19:24:49.606Z,0.00
2022-12-04T19:27:20.544Z,0.00
2022-12-04T19:29:55.565Z,0.00
2022-12-04T19:32:24.754Z,0.00
2022-12-04T19:34:52.904Z,0.00
2022-12-04T19:37:21.177Z,0.00
2022-12-04T19:39:50.667Z,0.00
2022-12-04T19:42:21.840Z,-0.10
2022-12-04T19:44:50.262Z,-0.10
2022-12-04T19:47:19.030Z,-0.10
2022-12-04T19:49:47.561Z,-0.20
2022-12-04T19:52:15.749Z,-0.20
2022-12-04T19:54:46.707Z,-0.30
2022-12-04T19:57:18.972Z,-0.30
2022-12-04T19:59:49.958Z,-0.30
2022-12-04T20:02:19.807Z,-0.30
2022-12-04T20:04:48.029Z,-0.30
2022-12-04T20:07:16.187Z,-0.30
2022-12-04T20:09:52.017Z,-0.20
2022-12-04T20:12:22.037Z,-0.20
2022-12-04T20:14:50.225Z,-0.20
2022-12-04T20:17:18.364Z,-0.20
2022-12-04T20:19:46.538Z,-0.20
2022-12-04T20:22:17.497Z,-0.10
2022-12-04T20:24:52.885Z,-0.10
2022-12-04T20:27:22.398Z,-0.10
2022-12-04T20:29:50.512Z,-0.10
2022-12-04T20:32:18.616Z,0.00
2022-12-04T20:34:49.733Z,0.00
2022-12-04T20:37:17.884Z,0.00
2022-12-04T20:39:49.015Z,0.10
2022-12-04T20:42:17.252Z,0.20
2022-12-04T20:44:46.884Z,0.20
2022-12-04T20:47:15.337Z,0.30
2022-12-04T20:49:43.610Z,0.30
2022-12-04T20:52:11.720Z,0.50
2022-12-04T20:54:41.754Z,0.50
2022-12-04T20:57:10.519Z,0.60
2022-12-04T20:59:38.899Z,0.70
2022-12-04T21:02:11.733Z,0.90
2022-12-04T21:04:42.520Z,1.00
2022-12-04T21:07:10.653Z,1.10
2022-12-04T21:09:38.806Z,1.10
2022-12-04T21:12:28.384Z,1.00
2022-12-04T21:15:14.900Z,1.00
2022-12-04T21:17:44.420Z,0.90
2022-12-04T21:20:15.629Z,0.90
2022-12-04T21:22:43.797Z,0.90
2022-12-04T21:25:12.340Z,1.00
2022-12-04T21:27:40.460Z,1.10
2022-12-04T21:30:09.860Z,1.20
2022-12-04T21:32:37.979Z,1.30
2022-12-04T21:35:08.219Z,1.50
2022-12-04T21:37:36.908Z,1.70
2022-12-04T21:40:08.096Z,1.60
2022-12-04T21:42:36.656Z,1.60
2022-12-04T21:45:07.622Z,1.70
2022-12-04T21:47:36.403Z,1.60
2022-12-04T21:50:05.240Z,1.60
2022-12-04T21:52:34.763Z,1.60
2022-12-04T21:55:02.966Z,1.70
2022-12-04T21:57:31.120Z,1.70
2022-12-04T21:59:59.524Z,1.80
2022-12-04T22:02:27.903Z,1.80
2022-12-04T22:04:56.099Z,1.90
2022-12-04T22:07:24.220Z,2.10
2022-12-04T22:09:53.724Z,2.20
2022-12-04T22:15:10.772Z,2.30
2022-12-04T22:17:38.892Z,2.40
2022-12-04T22:20:08.557Z,2.60
2022-12-04T22:22:36.729Z,2.70
2022-12-04T22:25:06.984Z,2.90
2022-12-04T22:27:35.160Z,3.10
2022-12-04T22:30:03.592Z,3.30
2022-12-04T22:32:32.110Z,3.50
2022-12-04T22:35:00.257Z,3.60
2022-12-04T22:37:28.376Z,3.70
2022-12-04T22:39:59.668Z,3.60
2022-12-04T22:42:29.521Z,3.60
2022-12-04T22:44:57.691Z,3.70
2022-12-04T22:47:25.824Z,3.70
2022-12-04T22:49:54.075Z,3.80
2022-12-04T22:52:22.375Z,3.90
2022-12-04T22:54:51.829Z,3.80
2022-12-04T22:57:20.321Z,4.00
2022-12-04T22:59:49.838Z,4.10
2022-12-04T23:02:17.978Z,4.10
2022-12-04T23:04:46.244Z,4.20
2022-12-04T23:07:14.434Z,4.20
2022-12-04T23:09:42.724Z,4.20
2022-12-04T23:12:10.883Z,4.30
2022-12-04T23:14:39.058Z,4.30
2022-12-04T23:17:08.629Z,4.40
2022-12-04T23:19:37.019Z,4.30
2022-12-04T23:22:05.141Z,4.40
2022-12-04T23:24:33.408Z,4.40
2022-12-04T23:27:01.552Z,4.50
2022-12-04T23:29:51.993Z,4.60
2022-12-04T23:32:19.438Z,4.60
2022-12-04T23:34:47.623Z,4.60
2022-12-04T23:37:16.109Z,4.70
2022-12-04T23:39:44.258Z,4.80
2022-12-04T23:42:12.390Z,4.90
2022-12-04T23:44:40.637Z,4.90
2022-12-04T23:47:08.803Z,4.80
2022-12-04T23:49:38.384Z,4.70
2022-12-04T23:52:06.684Z,4.80
2022-12-04T23:54:37.621Z,4.90
2022-12-04T23:57:06.176Z,4.90
2022-12-04T23:59:34.660Z,4.90
